createdAt,value
2018-04-27T00:02:26.050Z,9.20
2018-04-27T00:04:53.586Z,9.15
2018-04-27T00:07:21.094Z,9.13
2018-04-27T00:09:48.601Z,9.15
2018-04-27T00:12:16.115Z,9.12
2018-04-27T00:14:43.632Z,9.13
2018-04-27T00:17:11.139Z,9.15
2018-04-27T00:19:38.663Z,9.13
2018-04-27T00:22:06.195Z,9.10
2018-04-27T00:24:33.721Z,9.13
2018-04-27T00:27:01.244Z,9.13
2018-04-27T00:29:28.755Z,9.13
2018-04-27T00:31:56.283Z,9.12
2018-04-27T00:34:23.832Z,9.15
2018-04-27T00:36:51.378Z,9.17
2018-04-27T00:39:18.908Z,9.14
2018-04-27T00:41:46.428Z,9.17
2018-04-27T00:44:13.956Z,9.06
2018-04-27T00:46:41.486Z,8.95
2018-04-27T00:49:09.006Z,8.93
2018-04-27T00:51:36.534Z,8.97
2018-04-27T00:54:04.048Z,8.93
2018-04-27T00:56:31.577Z,9.01
2018-04-27T00:58:59.085Z,8.78
2018-04-27T01:01:26.596Z,8.70
2018-04-27T01:03:54.130Z,8.73
2018-04-27T01:06:21.659Z,8.70
2018-04-27T01:08:49.180Z,8.64
2018-04-27T01:11:16.706Z,8.55
2018-04-27T01:13:44.237Z,8.59
2018-04-27T01:16:11.755Z,8.49
2018-04-27T01:18:39.284Z,8.61
2018-04-27T01:21:06.804Z,8.56
2018-04-27T01:23:34.322Z,8.41
2018-04-27T01:26:01.836Z,8.49
2018-04-27T01:28:29.352Z,8.51
2018-04-27T01:30:56.853Z,8.40
2018-04-27T01:33:24.371Z,8.30
2018-04-27T01:35:51.895Z,8.35
2018-04-27T01:38:19.416Z,8.32
2018-04-27T01:40:46.935Z,8.29
2018-04-27T01:43:14.444Z,8.23
2018-04-27T01:45:41.962Z,8.15
2018-04-27T01:48:09.484Z,8.27
2018-04-27T01:50:37.013Z,8.29
2018-04-27T01:53:04.536Z,8.26
2018-04-27T01:55:32.051Z,8.25
2018-04-27T01:57:59.560Z,7.97
2018-04-27T02:00:27.076Z,7.88
2018-04-27T02:02:54.611Z,7.89
2018-04-27T02:05:22.143Z,7.94
2018-04-27T02:07:49.664Z,7.96
2018-04-27T02:10:17.184Z,7.90
2018-04-27T02:12:44.697Z,7.90
2018-04-27T02:15:12.215Z,7.79
2018-04-27T02:17:39.730Z,7.82
2018-04-27T02:20:07.248Z,7.78
2018-04-27T02:22:34.760Z,7.64
2018-04-27T02:25:02.285Z,7.67
2018-04-27T02:27:29.808Z,7.58
2018-04-27T02:29:57.324Z,7.61
2018-04-27T02:32:24.845Z,7.58
2018-04-27T02:34:52.360Z,7.61
2018-04-27T02:37:19.879Z,7.49
2018-04-27T02:39:47.407Z,7.55
2018-04-27T02:42:14.916Z,7.54
2018-04-27T02:44:42.494Z,7.51
2018-04-27T02:47:09.985Z,7.53
2018-04-27T02:49:37.493Z,7.47
2018-04-27T02:52:05.012Z,7.46
2018-04-27T02:54:32.543Z,7.47
2018-04-27T02:57:00.065Z,7.45
2018-04-27T02:59:27.596Z,7.40
2018-04-27T03:01:55.103Z,7.27
2018-04-27T03:04:22.631Z,7.29
2018-04-27T03:06:50.477Z,7.29
2018-04-27T03:09:17.988Z,7.31
2018-04-27T03:11:45.516Z,7.30
2018-04-27T03:14:13.023Z,7.21
2018-04-27T03:16:40.543Z,7.15
2018-04-27T03:19:08.069Z,7.13
2018-04-27T03:21:35.580Z,7.15
2018-04-27T03:24:03.204Z,7.09
2018-04-27T03:26:30.652Z,7.03
2018-04-27T03:28:58.162Z,7.03
2018-04-27T03:31:25.692Z,7.00
2018-04-27T03:33:53.208Z,7.04
2018-04-27T03:36:20.728Z,7.01
2018-04-27T03:38:48.232Z,6.90
2018-04-27T03:41:15.748Z,6.94
2018-04-27T03:43:43.260Z,6.97
2018-04-27T03:46:10.800Z,6.96
2018-04-27T03:48:38.323Z,6.91
2018-04-27T03:51:05.855Z,6.93
2018-04-27T03:53:33.388Z,6.92
2018-04-27T03:56:00.903Z,6.91
2018-04-27T03:58:28.435Z,6.89
2018-04-27T04:01:07.826Z,6.92
2018-04-27T04:03:47.012Z,6.93
2018-04-27T04:06:14.530Z,6.87
2018-04-27T04:08:42.039Z,6.90
2018-04-27T04:11:09.546Z,6.91
2018-04-27T04:13:37.076Z,6.84
2018-04-27T04:16:04.612Z,6.84
2018-04-27T04:18:32.140Z,6.85
2018-04-27T04:20:59.652Z,6.90
2018-04-27T04:23:27.174Z,6.89
2018-04-27T04:25:54.687Z,6.99
2018-04-27T04:28:22.211Z,6.92
2018-04-27T04:30:49.731Z,7.04
2018-04-27T04:33:17.244Z,7.06
2018-04-27T04:35:44.755Z,7.17
2018-04-27T04:38:12.267Z,7.19
2018-04-27T04:40:39.788Z,7.28
2018-04-27T04:43:07.305Z,7.20
2018-04-27T04:45:34.833Z,7.25
2018-04-27T04:48:02.349Z,7.35
2018-04-27T04:50:29.862Z,7.47
2018-04-27T04:52:57.386Z,7.48
2018-04-27T04:55:24.911Z,7.50
2018-04-27T04:57:52.432Z,7.46
2018-04-27T05:00:19.960Z,7.44
2018-04-27T05:02:47.584Z,7.49
2018-04-27T05:05:15.027Z,7.45
2018-04-27T05:07:42.547Z,7.51
2018-04-27T05:10:10.070Z,7.59
2018-04-27T05:12:37.639Z,7.60
2018-04-27T05:15:05.155Z,7.67
2018-04-27T05:17:32.677Z,7.58
2018-04-27T05:19:59.674Z,7.65
2018-04-27T05:22:27.206Z,7.74
2018-04-27T05:24:54.726Z,7.69
2018-04-27T05:27:22.247Z,7.87
2018-04-27T05:29:49.794Z,7.88
2018-04-27T05:32:17.314Z,8.08
2018-04-27T05:34:44.851Z,8.19
2018-04-27T05:37:12.365Z,8.18
2018-04-27T05:39:39.880Z,8.31
2018-04-27T05:42:07.399Z,8.35
2018-04-27T05:44:34.915Z,8.35
2018-04-27T05:47:02.422Z,8.48
2018-04-27T05:49:30.007Z,8.68
2018-04-27T05:51:57.492Z,8.69
2018-04-27T05:54:25.026Z,8.90
2018-04-27T05:56:52.608Z,9.03
2018-04-27T05:59:20.122Z,9.10
2018-04-27T06:01:48.827Z,9.44
2018-04-27T06:04:16.403Z,9.47
2018-04-27T06:06:44.022Z,9.55
2018-04-27T06:09:11.487Z,9.75
2018-04-27T06:11:39.097Z,10.12
2018-04-27T06:14:06.625Z,10.22
2018-04-27T06:16:34.157Z,10.40
2018-04-27T07:40:58.703Z,18.46
2018-04-27T07:43:26.229Z,16.99
2018-04-27T07:45:53.752Z,17.20
2018-04-27T07:48:21.280Z,16.34
2018-04-27T07:50:48.806Z,17.60
2018-04-27T07:53:16.335Z,16.79
2018-04-27T07:55:43.851Z,16.56
2018-04-27T07:58:11.380Z,17.15
2018-04-27T08:00:38.982Z,17.64
2018-04-27T08:03:06.504Z,17.82
2018-04-27T08:05:34.028Z,18.24
2018-04-27T08:08:01.558Z,17.40
2018-04-27T08:10:29.310Z,17.59
2018-04-27T08:12:56.831Z,17.95
2018-04-27T08:15:24.343Z,17.59
2018-04-27T08:17:51.864Z,18.05
2018-04-27T08:20:24.887Z,18.35
2018-04-27T08:22:52.401Z,18.63
2018-04-27T08:25:19.907Z,18.88
2018-04-27T08:27:47.421Z,19.54
2018-04-27T08:30:14.974Z,19.69
2018-04-27T08:32:42.508Z,19.93
2018-04-27T08:35:10.037Z,19.91
2018-04-27T08:37:37.562Z,20.36
2018-04-27T08:40:05.093Z,20.41
2018-04-27T08:42:32.612Z,20.00
2018-04-27T08:45:00.141Z,21.15
2018-04-27T08:47:27.676Z,20.52
2018-04-27T08:49:55.199Z,20.78
2018-04-27T08:52:22.715Z,21.13
2018-04-27T08:54:50.249Z,20.51
2018-04-27T08:57:17.772Z,22.20
2018-04-27T08:59:45.303Z,23.64
2018-04-27T09:02:12.817Z,22.08
2018-04-27T09:04:40.348Z,21.82
2018-04-27T09:07:07.864Z,22.63
2018-04-27T09:09:35.405Z,24.31
2018-04-27T09:12:02.924Z,22.30
2018-04-27T09:14:30.453Z,23.11
2018-04-27T09:16:58.023Z,24.77
2018-04-27T09:19:25.559Z,23.85
2018-04-27T09:21:53.092Z,24.99
2018-04-27T09:24:20.627Z,24.52
2018-04-27T09:26:48.159Z,24.44
2018-04-27T09:29:15.679Z,24.74
2018-04-27T09:31:43.200Z,25.26
2018-04-27T09:34:10.728Z,26.57
2018-04-27T09:36:38.250Z,28.21
2018-04-27T09:39:05.779Z,25.83
2018-04-27T09:41:33.326Z,24.48
2018-04-27T09:44:00.855Z,26.50
2018-04-27T09:46:28.385Z,24.85
2018-04-27T09:48:55.919Z,26.31
2018-04-27T09:51:23.446Z,26.76
2018-04-27T09:53:50.963Z,26.50
2018-04-27T09:56:18.487Z,26.61
2018-04-27T09:58:46.003Z,25.97
2018-04-27T10:01:13.518Z,26.49
2018-04-27T10:03:41.042Z,27.25
2018-04-27T10:06:08.577Z,25.92
2018-04-27T10:08:36.092Z,28.16
2018-04-27T10:11:03.624Z,26.81
2018-04-27T10:13:31.148Z,26.98
2018-04-27T10:15:58.664Z,28.12
2018-04-27T10:18:26.192Z,28.05
2018-04-27T10:20:53.721Z,25.95
2018-04-27T10:23:21.248Z,27.42
2018-04-27T10:25:48.775Z,26.32
2018-04-27T10:28:16.302Z,25.13
2018-04-27T10:30:43.884Z,25.91
2018-04-27T10:33:11.366Z,27.02
2018-04-27T10:35:38.897Z,26.68
2018-04-27T10:38:06.427Z,26.77
2018-04-27T10:40:33.953Z,27.04
2018-04-27T10:43:01.539Z,28.40
2018-04-27T10:45:29.023Z,28.11
2018-04-27T10:47:56.544Z,27.06
2018-04-27T10:50:24.068Z,29.01
2018-04-27T10:52:51.607Z,29.11
2018-04-27T10:55:19.123Z,27.56
2018-04-27T10:57:46.648Z,27.82
2018-04-27T11:00:14.168Z,26.42
2018-04-27T11:02:43.466Z,24.64
2018-04-27T11:05:10.983Z,23.36
2018-04-27T11:07:38.503Z,23.17
2018-04-27T11:10:06.014Z,24.21
2018-04-27T11:12:33.527Z,23.80
2018-04-27T11:15:01.052Z,22.81
2018-04-27T11:17:28.589Z,22.83
2018-04-27T11:19:56.100Z,22.60
2018-04-27T11:22:23.611Z,21.52
2018-04-27T11:24:51.136Z,21.80
2018-04-27T11:27:18.660Z,21.54
2018-04-27T11:29:46.224Z,20.31
2018-04-27T11:32:13.748Z,20.32
2018-04-27T11:34:41.260Z,19.78
2018-04-27T11:37:08.780Z,20.33
2018-04-27T11:39:36.307Z,20.19
2018-04-27T11:42:03.837Z,19.56
2018-04-27T11:44:31.357Z,19.83
2018-04-27T11:46:58.886Z,19.59
2018-04-27T11:49:26.401Z,18.97
2018-04-27T11:51:53.910Z,18.60
2018-04-27T11:54:21.431Z,18.68
2018-04-27T11:56:48.950Z,18.82
2018-04-27T11:59:16.467Z,18.80
2018-04-27T12:01:44.078Z,19.06
2018-04-27T12:04:11.536Z,19.27
2018-04-27T12:06:39.059Z,18.70
2018-04-27T12:09:06.573Z,18.49
2018-04-27T12:11:34.104Z,18.58
2018-04-27T12:14:01.632Z,18.67
2018-04-27T12:16:29.165Z,18.67
2018-04-27T12:18:56.707Z,18.37
2018-04-27T12:21:24.224Z,17.92
2018-04-27T12:23:51.756Z,18.18
2018-04-27T12:26:19.290Z,18.40
2018-04-27T12:28:46.803Z,18.12
2018-04-27T12:31:14.355Z,18.10
2018-04-27T12:33:41.875Z,18.27
2018-04-27T12:36:09.401Z,18.56
2018-04-27T12:38:36.924Z,18.80
2018-04-27T12:41:04.435Z,18.70
2018-04-27T12:43:31.951Z,18.53
2018-04-27T12:45:59.489Z,18.12
2018-04-27T12:48:27.015Z,18.18
2018-04-27T12:50:54.576Z,18.11
2018-04-27T12:53:22.096Z,17.62
2018-04-27T12:55:49.623Z,17.63
2018-04-27T12:58:18.078Z,17.47
2018-04-27T13:00:45.596Z,17.38
2018-04-27T13:03:13.111Z,17.26
2018-04-27T13:05:40.628Z,17.39
2018-04-27T13:08:08.174Z,17.73
2018-04-27T13:10:35.683Z,17.30
2018-04-27T13:13:03.221Z,17.43
2018-04-27T13:15:30.743Z,17.54
2018-04-27T13:17:58.269Z,17.41
2018-04-27T13:20:25.793Z,17.28
2018-04-27T13:22:53.312Z,17.23
2018-04-27T13:25:20.823Z,17.20
2018-04-27T13:27:48.356Z,17.36
2018-04-27T13:30:15.875Z,17.69
2018-04-27T13:32:43.400Z,17.42
2018-04-27T13:35:10.942Z,17.46
2018-04-27T13:37:38.476Z,17.61
2018-04-27T13:40:05.996Z,17.23
2018-04-27T13:42:33.512Z,17.16
2018-04-27T13:45:01.034Z,17.17
2018-04-27T13:47:28.560Z,17.49
2018-04-27T13:49:56.078Z,17.45
2018-04-27T13:52:23.609Z,17.24
2018-04-27T13:54:51.131Z,17.16
2018-04-27T13:57:18.657Z,17.21
2018-04-27T13:59:46.186Z,17.33
2018-04-27T14:02:13.710Z,17.30
2018-04-27T14:04:41.234Z,17.20
2018-04-27T14:07:08.768Z,17.40
2018-04-27T14:09:36.280Z,17.33
2018-04-27T14:12:03.811Z,17.36
2018-04-27T14:14:31.337Z,17.47
2018-04-27T14:16:58.868Z,17.40
2018-04-27T14:19:26.384Z,17.24
2018-04-27T14:21:53.923Z,17.38
2018-04-27T14:24:21.448Z,17.23
2018-04-27T14:26:49.030Z,17.28
2018-04-27T14:29:16.512Z,17.12
2018-04-27T14:31:44.025Z,17.21
2018-04-27T14:34:11.550Z,17.16
2018-04-27T14:36:39.083Z,17.22
2018-04-27T14:39:06.598Z,17.27
2018-04-27T14:41:34.127Z,17.28
2018-04-27T14:44:01.660Z,17.28
2018-04-27T14:46:29.243Z,17.28
2018-04-27T14:48:56.814Z,17.22
2018-04-27T14:51:24.280Z,17.17
2018-04-27T14:53:51.812Z,17.29
2018-04-27T14:56:19.332Z,17.11
2018-04-27T14:58:46.850Z,17.37
2018-04-27T15:01:14.370Z,17.18
2018-04-27T15:03:41.874Z,17.10
2018-04-27T15:06:09.390Z,17.06
2018-04-27T15:08:36.899Z,17.16
2018-04-27T15:11:04.436Z,17.18
2018-04-27T15:13:31.982Z,16.97
2018-04-27T15:15:59.555Z,16.93
2018-04-27T15:18:27.165Z,17.07
2018-04-27T15:20:54.637Z,16.98
2018-04-27T15:23:22.183Z,17.01
2018-04-27T15:25:49.714Z,17.07
2018-04-27T15:28:17.260Z,16.99
2018-04-27T15:30:44.782Z,17.05
2018-04-27T15:33:12.294Z,16.99
2018-04-27T15:35:39.820Z,17.01
2018-04-27T15:38:07.339Z,17.03
2018-04-27T15:40:34.852Z,16.89
2018-04-27T15:43:02.370Z,16.92
2018-04-27T15:45:29.890Z,16.99
2018-04-27T15:47:57.412Z,16.81
2018-04-27T15:50:24.946Z,16.96
2018-04-27T15:52:52.476Z,16.99
2018-04-27T15:55:20.003Z,16.93
2018-04-27T15:57:47.538Z,16.89
2018-04-27T16:00:15.056Z,16.92
2018-04-27T16:02:42.577Z,16.91
2018-04-27T16:05:10.103Z,17.01
2018-04-27T16:07:37.631Z,17.03
2018-04-27T16:10:05.156Z,17.07
2018-04-27T16:12:32.713Z,17.00
2018-04-27T16:15:00.267Z,16.98
2018-04-27T16:17:27.773Z,16.98
2018-04-27T16:19:55.421Z,16.96
2018-04-27T16:22:22.996Z,16.97
2018-04-27T16:24:50.524Z,16.94
2018-04-27T16:27:18.095Z,16.94
2018-04-27T16:29:45.615Z,16.91
2018-04-27T16:32:13.128Z,16.94
2018-04-27T16:34:40.654Z,16.94
2018-04-27T16:37:08.196Z,17.00
2018-04-27T16:39:35.770Z,16.97
2018-04-27T16:42:03.404Z,16.96
2018-04-27T16:44:30.916Z,17.04
2018-04-27T16:46:58.476Z,17.02
2018-04-27T16:49:26.022Z,16.95
2018-04-27T16:51:53.569Z,17.03
2018-04-27T16:54:21.681Z,17.05
2018-04-27T16:56:49.208Z,16.94
2018-04-27T16:59:16.732Z,17.00
2018-04-27T17:01:44.265Z,16.94
2018-04-27T17:04:11.785Z,16.85
2018-04-27T17:06:39.313Z,16.82
2018-04-27T17:09:06.857Z,16.84
2018-04-27T17:11:34.399Z,16.92
2018-04-27T17:14:01.992Z,16.91
2018-04-27T17:16:29.515Z,16.78
2018-04-27T17:18:57.059Z,16.76
2018-04-27T17:21:24.592Z,16.77
2018-04-27T17:23:52.230Z,16.70
2018-04-27T17:26:19.799Z,16.70
2018-04-27T17:28:47.356Z,16.65
2018-04-27T17:31:14.911Z,16.63
2018-04-27T17:33:42.492Z,16.63
2018-04-27T17:36:10.108Z,16.58
2018-04-27T17:38:37.659Z,16.55
2018-04-27T17:41:05.173Z,16.58
2018-04-27T17:43:32.801Z,16.54
2018-04-27T17:46:00.355Z,16.50
2018-04-27T17:48:27.896Z,16.45
2018-04-27T17:50:55.629Z,16.49
2018-04-27T17:53:23.362Z,16.39
2018-04-27T17:56:03.785Z,16.29
2018-04-27T17:58:31.347Z,16.28
2018-04-27T18:00:58.879Z,16.27
2018-04-27T18:03:26.402Z,16.24
2018-04-27T18:05:53.947Z,16.21
2018-04-27T18:08:21.471Z,16.17
2018-04-27T18:10:49.000Z,16.19
2018-04-27T18:13:16.532Z,16.12
2018-04-27T18:15:44.060Z,16.01
2018-04-27T18:18:11.723Z,16.00
2018-04-27T18:20:39.219Z,15.98
2018-04-27T18:23:06.744Z,15.97
2018-04-27T18:25:34.281Z,15.97
2018-04-27T18:28:01.821Z,15.93
2018-04-27T18:30:29.428Z,15.89
2018-04-27T18:32:57.036Z,15.86
2018-04-27T18:35:24.579Z,15.80
2018-04-27T18:37:52.140Z,15.76
2018-04-27T18:40:19.670Z,15.67
2018-04-27T18:42:47.234Z,15.65
2018-04-27T18:45:14.735Z,15.65
2018-04-27T18:47:42.312Z,15.63
2018-04-27T18:50:09.864Z,15.53
2018-04-27T18:52:37.395Z,15.50
2018-04-27T18:55:04.925Z,15.53
2018-04-27T18:57:32.435Z,15.43
2018-04-27T18:59:59.957Z,15.42
2018-04-27T19:02:27.485Z,15.28
2018-04-27T19:04:55.111Z,15.23
2018-04-27T19:07:22.720Z,15.26
2018-04-27T19:09:50.254Z,15.18
2018-04-27T19:12:17.809Z,15.17
2018-04-27T19:14:45.332Z,15.14
2018-04-27T19:17:14.738Z,15.09
2018-04-27T19:19:42.912Z,15.03
2018-04-27T19:22:10.443Z,15.03
2018-04-27T19:24:47.643Z,15.00
2018-04-27T19:27:15.164Z,14.88
2018-04-27T19:29:42.735Z,14.86
2018-04-27T19:32:10.278Z,14.89
2018-04-27T19:34:37.807Z,14.81
2018-04-27T19:37:05.337Z,14.80
2018-04-27T19:39:32.847Z,14.70
2018-04-27T19:42:00.391Z,14.70
2018-04-27T19:44:27.974Z,14.72
2018-04-27T19:46:55.505Z,14.68
2018-04-27T19:49:23.037Z,14.67
2018-04-27T19:51:50.561Z,14.56
2018-04-27T19:54:18.100Z,14.51
2018-04-27T19:56:45.655Z,14.34
2018-04-27T19:59:13.220Z,14.33
2018-04-27T20:01:40.750Z,14.26
2018-04-27T20:04:08.275Z,14.28
2018-04-27T20:06:35.800Z,14.19
2018-04-27T20:09:03.322Z,14.18
2018-04-27T20:11:30.853Z,14.22
2018-04-27T20:13:58.439Z,14.15
2018-04-27T20:16:36.809Z,14.12
2018-04-27T20:19:04.348Z,14.13
2018-04-27T20:21:31.938Z,14.09
2018-04-27T20:24:06.136Z,14.00
2018-04-27T20:26:33.720Z,14.04
2018-04-27T20:29:01.265Z,13.96
2018-04-27T20:31:28.855Z,13.90
2018-04-27T20:33:56.383Z,13.87
2018-04-27T20:36:23.908Z,13.87
2018-04-27T20:38:51.437Z,13.81
2018-04-27T20:41:18.951Z,13.79
2018-04-27T20:43:47.855Z,13.77
2018-04-27T20:46:15.393Z,13.62
2018-04-27T20:48:42.924Z,13.66
2018-04-27T20:51:10.458Z,13.56
2018-04-27T20:53:41.945Z,13.40
2018-04-27T20:56:09.465Z,13.34
2018-04-27T20:58:36.983Z,13.42
2018-04-27T21:01:04.536Z,13.44
2018-04-27T21:03:32.071Z,13.33
2018-04-27T21:05:59.599Z,13.33
2018-04-27T21:08:27.125Z,13.32
2018-04-27T21:10:54.704Z,13.25
2018-04-27T21:13:22.249Z,13.27
2018-04-27T21:15:49.778Z,13.11
2018-04-27T21:18:17.297Z,13.17
2018-04-27T21:20:44.825Z,13.02
2018-04-27T21:23:12.359Z,13.04
2018-04-27T21:25:39.905Z,13.06
2018-04-27T21:31:11.819Z,12.98
2018-04-27T21:33:39.355Z,12.97
2018-04-27T21:36:06.903Z,12.97
2018-04-27T21:38:50.220Z,12.90
2018-04-27T21:41:18.547Z,12.86
2018-04-27T21:43:46.140Z,12.91
2018-04-27T21:46:13.668Z,12.88
2018-04-27T21:48:41.188Z,12.89
2018-04-27T21:51:08.723Z,12.84
2018-04-27T21:53:36.255Z,12.82
2018-04-27T21:56:03.796Z,12.85
2018-04-27T21:58:31.326Z,12.84
2018-04-27T22:00:58.897Z,12.75
2018-04-27T22:03:26.417Z,12.76
2018-04-27T22:06:08.359Z,12.79
2018-04-27T22:08:43.476Z,12.75
2018-04-27T22:11:15.924Z,12.72
2018-04-27T22:13:43.450Z,12.62
2018-04-27T22:19:15.619Z,12.66
2018-04-27T22:21:43.131Z,12.58
2018-04-27T22:24:10.656Z,12.62
2018-04-27T22:26:40.943Z,12.57
2018-04-27T22:32:22.419Z,12.44
2018-04-27T22:34:54.481Z,12.42
2018-04-27T22:37:22.727Z,12.44
2018-04-27T22:39:50.267Z,12.41
2018-04-27T22:42:22.258Z,12.33
2018-04-27T22:45:05.284Z,12.33
2018-04-27T22:47:32.852Z,12.38
2018-04-27T22:50:03.065Z,12.33
2018-04-27T22:52:34.921Z,12.25
2018-04-27T22:55:02.483Z,12.22
2018-04-27T22:57:36.587Z,12.21
2018-04-27T23:00:18.075Z,12.15
2018-04-27T23:02:45.607Z,12.22
2018-04-27T23:05:15.012Z,12.20
2018-04-27T23:07:47.042Z,12.23
2018-04-27T23:10:14.559Z,12.22
2018-04-27T23:12:42.784Z,12.19
2018-04-27T23:15:10.302Z,12.17
2018-04-27T23:17:37.906Z,12.06
2018-04-27T23:20:06.279Z,12.05
2018-04-27T23:22:39.611Z,12.05
2018-04-27T23:25:10.155Z,11.96
2018-04-27T23:27:37.679Z,11.93
2018-04-27T23:30:06.045Z,11.93
2018-04-27T23:32:33.563Z,11.92
2018-04-27T23:35:01.091Z,11.88
2018-04-27T23:37:28.621Z,11.76
2018-04-27T23:39:56.140Z,11.81
2018-04-27T23:42:25.129Z,11.80
2018-04-27T23:44:52.643Z,11.82
2018-04-27T23:47:20.172Z,11.81
2018-04-27T23:49:47.716Z,11.72
2018-04-27T23:52:15.236Z,11.67
2018-04-27T23:54:42.763Z,11.67
2018-04-27T23:57:10.283Z,11.64
2018-04-27T23:59:39.642Z,11.70
